createdAt,value
2023-04-26T05:24:30.753Z,99635.94
2023-04-26T05:27:04.376Z,99642.91
2023-04-26T05:29:36.714Z,99645.05
2023-04-26T05:32:10.731Z,99640.77
2023-04-26T05:34:44.021Z,99644.80
2023-04-26T05:37:17.745Z,99649.52
2023-04-26T05:39:51.217Z,99651.86
2023-04-26T05:42:23.588Z,99651.96
2023-04-26T05:45:00.363Z,99648.42
2023-04-26T05:47:32.638Z,99650.66
2023-04-26T05:50:05.334Z,99654.82
2023-04-26T05:52:37.708Z,99648.16
2023-04-26T05:55:11.460Z,99644.98
2023-04-26T05:57:44.413Z,99647.32
2023-04-26T06:00:20.399Z,99648.29
2023-04-26T06:02:53.084Z,99643.77
2023-04-26T06:05:26.242Z,99638.21
2023-04-26T06:07:58.813Z,99637.46
2023-04-26T06:10:31.901Z,99636.03
2023-04-26T06:13:04.711Z,99632.64
2023-04-26T06:15:48.246Z,99633.45
2023-04-26T06:18:20.632Z,99627.60
2023-04-26T06:20:53.548Z,99620.89
2023-04-26T06:23:26.280Z,99613.36
2023-04-26T06:25:59.264Z,99609.85
2023-04-26T06:28:31.651Z,99608.64
2023-04-26T06:31:07.442Z,99603.72
2023-04-26T06:33:40.032Z,99601.61
2023-04-26T06:36:15.758Z,99605.80
2023-04-26T06:38:48.195Z,99608.75
2023-04-26T06:41:22.277Z,99609.09
2023-04-26T06:43:54.837Z,99613.96
2023-04-26T06:46:27.624Z,99616.48
2023-04-26T06:49:00.179Z,99610.58
2023-04-26T06:51:34.732Z,99605.77
2023-04-26T06:54:07.674Z,99612.20
2023-04-26T06:56:40.100Z,99608.09
2023-04-26T06:59:12.505Z,99611.29
2023-04-26T07:01:44.901Z,99613.29
2023-04-26T07:04:18.911Z,99617.05
2023-04-26T07:06:51.817Z,99620.89
2023-04-26T07:09:24.220Z,99621.14
2023-04-26T07:11:56.686Z,99616.66
2023-04-26T07:14:29.585Z,99618.37
2023-04-26T07:17:01.978Z,99617.80
2023-04-26T07:19:34.460Z,99615.99
2023-04-26T07:22:06.880Z,99621.02
2023-04-26T07:24:39.714Z,99623.06
2023-04-26T07:27:12.255Z,99619.27
2023-04-26T07:29:44.533Z,99617.68
2023-04-26T07:32:17.296Z,99612.22
2023-04-26T07:34:49.781Z,99621.10
2023-04-26T07:37:22.211Z,99617.63
2023-04-26T07:39:54.914Z,99617.64
2023-04-26T07:42:27.366Z,99618.61
2023-04-26T07:45:00.068Z,99617.73
2023-04-26T07:47:32.427Z,99618.25
2023-04-26T07:50:04.910Z,99621.16
2023-04-26T07:52:37.818Z,99623.09
2023-04-26T07:55:12.776Z,99630.60
2023-04-26T07:57:46.244Z,99633.85
2023-04-26T08:00:22.423Z,99635.95
2023-04-26T08:02:55.202Z,99633.23
2023-04-26T08:05:28.138Z,99634.95
2023-04-26T08:08:01.830Z,99632.73
2023-04-26T08:10:34.099Z,99637.27
2023-04-26T08:13:06.789Z,99631.48
2023-04-26T08:15:39.413Z,99630.72
2023-04-26T08:18:11.837Z,99631.15
2023-04-26T08:20:44.205Z,99637.38
2023-04-26T08:23:16.520Z,99638.09
2023-04-26T08:25:49.841Z,99640.11
2023-04-26T08:28:22.123Z,99639.70
2023-04-26T08:30:54.416Z,99641.91
2023-04-26T08:33:26.983Z,99640.73
2023-04-26T08:36:00.220Z,99640.73
2023-04-26T08:38:33.406Z,99638.56
2023-04-26T08:41:08.025Z,99639.48
2023-04-26T08:43:41.762Z,99642.19
2023-04-26T08:46:17.766Z,99642.91
2023-04-26T08:49:01.346Z,99643.19
2023-04-26T08:51:34.936Z,99644.33
2023-04-26T08:54:09.215Z,99644.57
2023-04-26T08:56:44.230Z,99643.17
2023-04-26T08:59:17.151Z,99648.35
2023-04-26T09:01:51.124Z,99642.32
2023-04-26T09:04:24.477Z,99644.31
2023-04-26T09:07:02.058Z,99641.27
2023-04-26T09:09:42.755Z,99641.31
2023-04-26T09:12:16.175Z,99645.77
2023-04-26T09:14:49.002Z,99647.77
2023-04-26T09:17:32.042Z,99644.08
2023-04-26T09:20:18.938Z,99648.71
2023-04-26T09:22:52.585Z,99648.70
2023-04-26T09:25:31.566Z,99652.07
2023-04-26T09:28:05.483Z,99652.69
2023-04-26T09:30:41.769Z,99647.40
2023-04-26T09:33:14.034Z,99650.59
2023-04-26T09:35:47.012Z,99648.77
2023-04-26T09:38:20.016Z,99647.92
2023-04-26T09:40:53.072Z,99644.87
2023-04-26T09:43:25.738Z,99643.38
2023-04-26T09:46:00.258Z,99645.05
2023-04-26T09:48:34.619Z,99646.73
2023-04-26T09:51:13.630Z,99643.24
2023-04-26T09:53:51.317Z,99646.57
2023-04-26T09:56:23.718Z,99647.79
2023-04-26T09:59:05.305Z,99646.92
2023-04-26T10:01:38.784Z,99640.39
2023-04-26T10:04:11.587Z,99644.56
2023-04-26T10:06:43.983Z,99642.48
2023-04-26T10:09:16.783Z,99647.55
2023-04-26T10:11:49.993Z,99644.61
2023-04-26T10:14:24.387Z,99648.11
2023-04-26T10:16:58.163Z,99644.30
2023-04-26T10:19:30.931Z,99639.58
2023-04-26T10:22:08.404Z,99637.65
2023-04-26T10:24:41.175Z,99636.49
2023-04-26T10:27:13.681Z,99633.08
2023-04-26T10:30:10.667Z,99632.45
2023-04-26T10:33:16.875Z,99629.66
2023-04-26T10:36:10.575Z,99627.06
2023-04-26T10:39:06.105Z,99630.70
2023-04-26T10:41:40.312Z,99636.33
2023-04-26T10:44:45.690Z,99637.45
2023-04-26T10:47:31.564Z,99634.86
2023-04-26T10:50:06.553Z,99635.05
2023-04-26T10:52:39.877Z,99632.98
2023-04-26T10:55:12.353Z,99631.66
2023-04-26T10:57:54.188Z,99623.41
2023-04-26T11:00:33.722Z,99624.06
2023-04-26T11:03:15.459Z,99625.55
2023-04-26T11:05:58.299Z,99622.27
2023-04-26T11:08:32.109Z,99626.13
2023-04-26T11:11:12.203Z,99626.08
2023-04-26T11:13:45.704Z,99629.09
2023-04-26T11:16:19.477Z,99628.84
2023-04-26T11:18:55.886Z,99625.03
2023-04-26T11:21:29.175Z,99624.42
2023-04-26T11:24:01.430Z,99622.64
2023-04-26T11:26:37.153Z,99623.46
2023-04-26T11:29:13.746Z,99621.54
2023-04-26T11:31:52.072Z,99623.77
2023-04-26T11:34:35.356Z,99624.23
2023-04-26T11:37:08.773Z,99618.78
2023-04-26T11:39:41.172Z,99617.40
2023-04-26T11:42:14.734Z,99620.79
2023-04-26T11:44:47.716Z,99618.70
2023-04-26T11:47:21.247Z,99621.46
2023-04-26T11:49:53.972Z,99615.44
2023-04-26T11:52:27.614Z,99619.48
2023-04-26T11:55:07.774Z,99620.50
2023-04-26T11:57:40.124Z,99620.45
2023-04-26T12:00:16.104Z,99627.36
2023-04-26T12:02:49.569Z,99627.69
2023-04-26T12:05:30.844Z,99623.73
2023-04-26T12:08:03.733Z,99629.35
2023-04-26T12:10:39.011Z,99630.01
2023-04-26T12:13:16.724Z,99629.06
2023-04-26T12:15:51.519Z,99627.21
2023-04-26T12:18:30.895Z,99623.43
2023-04-26T12:21:03.985Z,99623.04
2023-04-26T12:23:42.226Z,99622.65
2023-04-26T12:26:15.331Z,99620.80
2023-04-26T12:28:48.100Z,99623.63
2023-04-26T12:31:20.648Z,99622.80
2023-04-26T12:33:53.038Z,99620.52
2023-04-26T12:36:25.371Z,99620.16
2023-04-26T12:38:58.180Z,99619.00
2023-04-26T12:41:30.573Z,99614.55
2023-04-26T12:44:03.336Z,99618.55
2023-04-26T12:46:35.436Z,99621.14
2023-04-26T12:49:08.058Z,99623.08
2023-04-26T12:51:40.836Z,99632.48
2023-04-26T12:54:13.245Z,99636.09
2023-04-26T12:56:46.252Z,99637.92
2023-04-26T12:59:18.738Z,99647.63
2023-04-26T13:01:51.123Z,99662.52
2023-04-26T13:04:23.775Z,99661.42
2023-04-26T13:06:56.736Z,99670.21
2023-04-26T13:09:29.132Z,99672.09
2023-04-26T13:12:01.538Z,99680.25
2023-04-26T13:14:34.030Z,99692.89
2023-04-26T13:17:08.640Z,99692.66
2023-04-26T13:19:41.141Z,99698.73
2023-04-26T13:22:15.157Z,99694.00
2023-04-26T13:24:47.907Z,99695.50
2023-04-26T13:27:20.248Z,99697.36
2023-04-26T13:29:53.156Z,99710.02
2023-04-26T13:32:25.618Z,99709.54
2023-04-26T13:34:58.386Z,99715.66
2023-04-26T13:37:31.917Z,99717.50
2023-04-26T13:40:05.467Z,99720.73
2023-04-26T13:42:37.903Z,99723.66
2023-04-26T13:45:17.018Z,99728.63
2023-04-26T13:47:50.989Z,99732.84
2023-04-26T13:50:23.328Z,99736.84
2023-04-26T13:52:55.682Z,99745.98
2023-04-26T13:55:29.906Z,99749.11
2023-04-26T13:58:02.737Z,99752.36
2023-04-26T14:00:35.075Z,99750.92
2023-04-26T14:03:07.899Z,99755.27
2023-04-26T14:05:40.391Z,99759.12
2023-04-26T14:08:12.875Z,99765.06
2023-04-26T14:10:45.622Z,99770.56
2023-04-26T14:13:18.617Z,99776.50
2023-04-26T14:15:51.406Z,99776.84
2023-04-26T14:18:23.915Z,99782.75
2023-04-26T14:20:56.205Z,99782.45
2023-04-26T14:23:28.772Z,99787.67
2023-04-26T14:26:01.010Z,99790.81
2023-04-26T14:28:33.494Z,99792.40
2023-04-26T14:31:06.098Z,99794.15
2023-04-26T14:33:38.609Z,99801.01
2023-04-26T14:36:11.557Z,99798.88
2023-04-26T14:38:46.693Z,99804.70
2023-04-26T14:41:20.471Z,99807.59
2023-04-26T14:43:52.839Z,99808.92
2023-04-26T14:46:25.173Z,99815.09
2023-04-26T14:48:57.430Z,99812.80
2023-04-26T14:51:29.880Z,99815.46
2023-04-26T14:54:02.456Z,99817.98
2023-04-26T14:56:37.371Z,99816.66
2023-04-26T14:59:09.755Z,99815.34
2023-04-26T15:01:42.068Z,99819.46
2023-04-26T15:04:14.670Z,99816.60
2023-04-26T15:06:47.355Z,99814.94
2023-04-26T15:09:19.665Z,99818.19
2023-04-26T15:11:51.990Z,99818.05
2023-04-26T15:14:24.461Z,99824.13
2023-04-26T15:16:57.281Z,99823.10
2023-04-26T15:19:29.738Z,99828.45
2023-04-26T15:22:02.181Z,99826.31
2023-04-26T15:24:38.739Z,99830.77
2023-04-26T15:27:11.108Z,99829.59
2023-04-26T15:29:43.632Z,99836.13
2023-04-26T15:32:15.793Z,99838.05
2023-04-26T15:34:48.414Z,99844.19
2023-04-26T15:37:20.943Z,99844.08
2023-04-26T15:39:53.458Z,99844.80
2023-04-26T15:42:25.864Z,99841.08
2023-04-26T15:44:58.251Z,99844.44
2023-04-26T15:47:30.637Z,99848.29
2023-04-26T15:50:05.913Z,99850.95
2023-04-26T15:52:39.689Z,99853.61
2023-04-26T15:55:12.605Z,99857.08
2023-04-26T15:57:45.754Z,99860.20
2023-04-26T16:00:19.877Z,99863.75
2023-04-26T16:02:52.526Z,99867.25
2023-04-26T16:05:25.000Z,99872.91
2023-04-26T16:07:57.448Z,99873.95
2023-04-26T16:10:30.370Z,99877.28
2023-04-26T16:13:02.768Z,99882.25
2023-04-26T16:15:35.143Z,99886.58
2023-04-26T16:18:07.715Z,99894.70
2023-04-26T16:20:40.144Z,99897.10
2023-04-26T16:23:12.514Z,99903.21
2023-04-26T16:25:45.402Z,99905.78
2023-04-26T16:28:18.125Z,99907.98
2023-04-26T16:30:50.590Z,99916.67
2023-04-26T16:33:23.635Z,99922.61
2023-04-26T16:35:56.963Z,99927.52
2023-04-26T16:38:29.280Z,99929.57
2023-04-26T16:41:02.648Z,99938.61
2023-04-26T16:43:35.018Z,99942.63
2023-04-26T16:46:09.296Z,99954.81
2023-04-26T16:48:41.911Z,99958.55
2023-04-26T16:51:14.336Z,99964.01
2023-04-26T16:53:46.666Z,99971.02
2023-04-26T16:56:19.063Z,99970.98
2023-04-26T16:58:51.761Z,99974.55
2023-04-26T17:01:24.183Z,99974.44
2023-04-26T17:03:57.364Z,99983.10
2023-04-26T17:06:30.023Z,99986.95
2023-04-26T17:09:02.480Z,99990.04
2023-04-26T17:11:37.440Z,99987.55
2023-04-26T17:14:09.797Z,99994.30
2023-04-26T17:16:42.416Z,99997.09
2023-04-26T17:19:14.816Z,100000.86
2023-04-26T17:21:47.241Z,100008.21
2023-04-26T17:24:19.631Z,100005.64
2023-04-26T17:26:51.974Z,100011.33
2023-04-26T17:29:24.307Z,100010.77
2023-04-26T17:31:56.666Z,100014.23
2023-04-26T17:34:29.062Z,100017.30
2023-04-26T17:37:01.531Z,100021.34
2023-04-26T17:39:35.281Z,100028.11
2023-04-26T17:42:07.760Z,100030.66
2023-04-26T17:44:40.094Z,100036.81
2023-04-26T17:47:12.551Z,100040.73
2023-04-26T17:49:44.917Z,100043.27
2023-04-26T17:52:18.519Z,100048.17
2023-04-26T17:54:50.954Z,100053.67
2023-04-26T17:57:24.254Z,100055.89
2023-04-26T17:59:57.288Z,100061.02
2023-04-26T18:02:29.681Z,100068.06
2023-04-26T18:05:02.262Z,100074.46
2023-04-26T18:07:34.851Z,100077.25
2023-04-26T18:10:08.801Z,100077.92
2023-04-26T18:12:41.116Z,100089.50
2023-04-26T18:15:14.039Z,100095.11
2023-04-26T18:17:46.596Z,100100.48
2023-04-26T18:20:19.022Z,100102.88
2023-04-26T18:22:51.688Z,100109.67
2023-04-26T18:25:24.110Z,100116.21
2023-04-26T18:27:56.481Z,100123.91
2023-04-26T18:30:29.136Z,100127.10
2023-04-26T18:33:04.362Z,100131.78
2023-04-26T18:35:36.766Z,100134.92
2023-04-26T18:38:09.159Z,100140.47
2023-04-26T18:40:46.242Z,100144.02
2023-04-26T18:43:18.948Z,100153.63
2023-04-26T18:45:52.770Z,100154.23
2023-04-26T18:48:25.152Z,100163.17
2023-04-26T18:50:58.102Z,100164.40
2023-04-26T18:53:30.787Z,100168.10
2023-04-26T18:56:03.255Z,100173.10
2023-04-26T18:58:37.167Z,100177.43
2023-04-26T19:01:09.496Z,100182.14
2023-04-26T19:03:44.465Z,100181.84
2023-04-26T19:06:17.193Z,100187.63
2023-04-26T19:08:49.503Z,100191.70
2023-04-26T19:11:23.194Z,100189.27
2023-04-26T19:13:56.787Z,100191.44
2023-04-26T19:16:29.300Z,100197.55
2023-04-26T19:19:02.141Z,100201.98
2023-04-26T19:21:35.274Z,100204.94
2023-04-26T19:24:08.746Z,100203.08
2023-04-26T19:26:43.738Z,100208.73
2023-04-26T19:29:16.069Z,100206.08
2023-04-26T19:31:48.324Z,100202.30
2023-04-26T19:34:21.813Z,100200.59
2023-04-26T19:36:54.215Z,100207.27
2023-04-26T19:39:26.545Z,100207.55
2023-04-26T19:42:01.338Z,100216.96
2023-04-26T19:44:33.596Z,100222.95
2023-04-26T19:47:06.912Z,100222.83
2023-04-26T19:49:39.719Z,100228.18
2023-04-26T19:52:13.591Z,100229.96
2023-04-26T19:54:45.835Z,100228.73
2023-04-26T19:57:18.133Z,100229.64
2023-04-26T19:59:50.450Z,100235.62
2023-04-26T20:02:22.758Z,100236.05
2023-04-26T20:04:55.193Z,100244.80
2023-04-26T20:07:27.689Z,100245.14
2023-04-26T20:10:00.051Z,100247.27
2023-04-26T20:12:32.297Z,100247.52
2023-04-26T20:15:04.712Z,100247.13
2023-04-26T20:17:37.681Z,100251.01
2023-04-26T20:20:12.435Z,100251.61
2023-04-26T20:22:44.789Z,100254.73
2023-04-26T20:25:19.957Z,100261.63
2023-04-26T20:27:52.650Z,100257.48
2023-04-26T20:30:25.801Z,100265.86
2023-04-26T20:32:58.240Z,100266.05
2023-04-26T20:35:30.746Z,100265.96
2023-04-26T20:38:03.224Z,100268.42
2023-04-26T20:40:35.602Z,100273.17
2023-04-26T20:43:08.102Z,100272.53
2023-04-26T20:45:41.408Z,100276.16
2023-04-26T20:48:14.314Z,100279.08
2023-04-26T20:50:46.492Z,100279.13
2023-04-26T20:53:18.859Z,100283.17
2023-04-26T20:55:52.560Z,100286.42
2023-04-26T20:58:25.079Z,100286.05
2023-04-26T21:00:59.445Z,100289.92
2023-04-26T21:03:32.668Z,100288.04
2023-04-26T21:06:05.214Z,100289.89
2023-04-26T21:08:37.464Z,100290.52
2023-04-26T21:11:09.879Z,100294.02
2023-04-26T21:13:42.437Z,100292.92
2023-04-26T21:16:14.757Z,100294.16
2023-04-26T21:18:47.533Z,100297.90
2023-04-26T21:21:20.270Z,100298.46
2023-04-26T21:23:52.623Z,100296.48
2023-04-26T21:26:24.926Z,100299.07
2023-04-26T21:28:57.104Z,100297.44
2023-04-26T21:31:29.532Z,100301.91
2023-04-26T21:34:02.003Z,100309.55
2023-04-26T21:36:34.361Z,100321.11
2023-04-26T21:39:06.853Z,100320.57
2023-04-26T21:41:39.333Z,100323.52
2023-04-26T21:44:11.717Z,100330.81
2023-04-26T21:46:44.113Z,100337.02
2023-04-26T21:49:16.475Z,100343.96
2023-04-26T21:51:48.805Z,100345.73
2023-04-26T21:54:21.091Z,100346.34
2023-04-26T21:56:53.361Z,100351.60
2023-04-26T21:59:25.796Z,100353.94
2023-04-26T22:01:58.086Z,100355.10
2023-04-26T22:04:30.523Z,100353.34
2023-04-26T22:07:03.195Z,100354.63
2023-04-26T22:09:35.811Z,100353.77
2023-04-26T22:12:08.585Z,100354.36
2023-04-26T22:14:40.942Z,100358.88
2023-04-26T22:17:13.137Z,100363.05
2023-04-26T22:19:45.609Z,100368.11
2023-04-26T22:22:18.458Z,100368.33
2023-04-26T22:24:52.094Z,100370.24
2023-04-26T22:27:24.990Z,100369.17
2023-04-26T22:29:57.482Z,100375.07
2023-04-26T22:32:29.863Z,100378.71
2023-04-26T22:35:02.139Z,100379.20
2023-04-26T22:37:34.548Z,100382.08
2023-04-26T22:40:10.404Z,100382.56
2023-04-26T22:42:41.043Z,100381.51
2023-04-26T22:45:15.167Z,100388.35
2023-04-26T22:47:47.715Z,100387.49
2023-04-26T22:50:20.214Z,100387.37
2023-04-26T22:52:52.553Z,100390.01
2023-04-26T22:55:25.118Z,100389.59
2023-04-26T22:57:57.340Z,100387.84
2023-04-26T23:00:29.747Z,100390.44
2023-04-26T23:03:02.200Z,100389.16
2023-04-26T23:05:34.670Z,100393.58
2023-04-26T23:08:07.422Z,100395.67
2023-04-26T23:10:41.541Z,100397.61
2023-04-26T23:13:14.624Z,100395.85
2023-04-26T23:15:47.021Z,100394.88
2023-04-26T23:18:19.782Z,100397.50
2023-04-26T23:20:52.700Z,100398.96
2023-04-26T23:23:25.091Z,100401.79
2023-04-26T23:25:57.417Z,100401.63
2023-04-26T23:28:29.784Z,100400.16
2023-04-26T23:31:02.288Z,100400.45
2023-04-26T23:33:34.657Z,100401.55
2023-04-26T23:36:08.151Z,100401.07
2023-04-26T23:38:40.436Z,100402.89
2023-04-26T23:41:12.785Z,100402.90
2023-04-26T23:43:45.072Z,100401.57
2023-04-26T23:46:17.525Z,100401.35
2023-04-26T23:48:49.952Z,100403.08
2023-04-26T23:51:22.255Z,100401.41
2023-04-26T23:53:54.778Z,100402.44
2023-04-26T23:56:27.210Z,100396.89
2023-04-26T23:58:59.578Z,100410.62
